Briefing drone pour Chabeuil

Rechercher une autre localisation

Conditions de vol :


Nous sommes le : Mardi 13 avril 2021
Il est 13:11 UTC (15:11 LT)

Lever de soleil : 04:31 UTC (06:31 LT)
Coucher de soleil : 18:49 UTC (20:49 LT)

Météo

L'essentiel des conditions de vol

VIGILANCE MÉTÉO FRANCE - Drôme (26)
Pas de vigilances particulieres
METAR de LFLU
LFLU 131300Z AUTO 35023KT 9999 FEW066 13/M00 Q1024

Date d'émission: 13/04/2021
Heure d'émission: 13:00 UTC
Vent: 350° pour 23 KT (43 km/h)
Visibilité horizontale: > 10 km
Plafond :
- Peu de nuages à 6600ft (2012m)
Température: 13 °C
Point de rosée: 0 °C
Humidité: 41%
Pression (QNH): 1024 hPa
Prévision 24h pour Valence (6 km)
Vent : 3° pour 6 KT (20 km/h)
Temperature Maxi: 7 °C
Temperature Min: 7 °C
Humidité : 58%
Condition : Couvert



Warning: count(): Parameter must be an array or an object that implements Countable in /homepages/6/d509196549/htdocs/droneoxygene/briefing.php on line 743
WEBCAM POUR CHABEUIL

Réglementation

Voler en sécurité

CARTES AERONAUTIQUE 1/500.000
CARTES VAC (LFLU)
SUP AIP




Chargement des AIP...
NOTAM (CHABEUIL + Terrain à proximité / FIR )




Chargement des NOTAMS...
CONTACT PREFECTURE 26
Drôme (26) : ddt-sdsr@drome.gouv.fr


Avertissement : Les données mises à disposition sont indicatives. Oxygène Drone ne pourra être tenu responsable de dégâts causés aux biens et aux personnes.